createdAt,value
2018-02-23T00:07:42.091Z,56.46
2018-02-23T00:09:39.957Z,55.71
2018-02-23T00:11:36.462Z,54.98
2018-02-23T00:12:26.977Z,54.03
2018-02-23T00:25:17.894Z,50.64
2018-02-23T00:39:24.577Z,49.22
2018-02-23T00:40:18.604Z,49.32
2018-02-23T00:41:08.310Z,49.88
2018-02-23T00:41:57.799Z,49.88
2018-02-23T00:42:49.491Z,49.88
2018-02-23T00:43:41.082Z,49.79
2018-02-23T00:54:22.598Z,49.76
2018-02-23T00:58:12.090Z,49.86
2018-02-23T00:59:02.567Z,50.24
2018-02-23T00:59:57.120Z,49.86
2018-02-23T01:03:46.330Z,49.69
2018-02-23T01:05:16.361Z,49.98
2018-02-23T01:05:56.823Z,49.69
2018-02-23T01:06:37.213Z,49.51
2018-02-23T01:07:17.607Z,49.67
2018-02-23T01:07:58.021Z,50.26
2018-02-23T01:08:38.444Z,50.07
2018-02-23T01:09:18.859Z,49.79
2018-02-23T01:09:59.209Z,49.13
2018-02-23T01:10:39.622Z,49.88
2018-02-23T01:11:20.023Z,49.88
2018-02-23T01:12:00.433Z,50.26
2018-02-23T01:12:40.944Z,49.88
2018-02-23T01:13:21.345Z,49.88
2018-02-23T01:14:01.713Z,49.32
2018-02-23T01:14:42.134Z,49.32
2018-02-23T01:15:22.556Z,49.41
2018-02-23T01:16:03.002Z,49.32
2018-02-23T01:16:43.362Z,49.41
2018-02-23T01:17:23.718Z,49.51
2018-02-23T01:18:04.139Z,49.32
2018-02-23T01:18:44.588Z,49.6
2018-02-23T01:19:25.063Z,49.32
2018-02-23T01:20:05.705Z,49.41
2018-02-23T01:20:46.139Z,49.6
2018-02-23T01:21:26.490Z,49.51
2018-02-23T01:22:06.889Z,49.19
2018-02-23T01:22:47.261Z,49.41
2018-02-23T01:23:27.636Z,49.41
2018-02-23T01:24:08.104Z,49.19
2018-02-23T01:24:48.447Z,49.67
2018-02-23T01:25:28.834Z,49.67
2018-02-23T01:26:09.268Z,50.15
2018-02-23T01:26:49.698Z,49.86
2018-02-23T01:27:30.070Z,49.29
2018-02-23T01:28:10.472Z,49.76
2018-02-23T01:28:50.883Z,49.86
2018-02-23T01:29:31.283Z,49.86
2018-02-23T01:30:11.681Z,50.15
2018-02-23T01:30:52.105Z,50.05
2018-02-23T01:31:33.648Z,49.88
2018-02-23T01:32:14.043Z,50.26
2018-02-23T01:32:54.470Z,49.41
2018-02-23T01:33:34.887Z,49.38
2018-02-23T01:34:15.294Z,49.98
2018-02-23T01:34:55.744Z,49.29
2018-02-23T01:35:36.137Z,49.1
2018-02-23T01:36:16.527Z,49.19
2018-02-23T01:36:56.918Z,49.95
2018-02-23T01:37:37.375Z,49.38
2018-02-23T01:38:17.738Z,49.86
2018-02-23T01:38:58.141Z,49.38
2018-02-23T01:39:38.627Z,49.48
2018-02-23T01:40:18.964Z,49.86
2018-02-23T01:40:59.412Z,49.29
2018-02-23T01:41:39.770Z,49.38
2018-02-23T01:42:20.130Z,49.95
2018-02-23T01:43:00.509Z,49.57
2018-02-23T01:43:40.891Z,49.29
2018-02-23T01:44:21.295Z,49.57
2018-02-23T01:45:01.695Z,49.76
2018-02-23T01:45:42.100Z,49.67
2018-02-23T01:46:22.562Z,49.95
2018-02-23T01:47:02.951Z,49.95
2018-02-23T01:47:43.377Z,49.95
2018-02-23T01:48:23.778Z,49.86
2018-02-23T01:49:04.198Z,49.88
2018-02-23T01:49:44.631Z,49.79
2018-02-23T01:50:24.998Z,49.38
2018-02-23T01:51:05.343Z,49.6
2018-02-23T01:51:45.786Z,49.41
2018-02-23T01:52:26.148Z,49.88
2018-02-23T01:53:06.578Z,50.45
2018-02-23T01:53:46.999Z,49.41
2018-02-23T01:54:27.410Z,49.32
2018-02-23T01:55:07.804Z,48.82
2018-02-23T01:55:48.215Z,48.82
2018-02-23T01:56:28.592Z,49.38
2018-02-23T01:57:09.053Z,49.57
2018-02-23T01:57:49.446Z,49.29
2018-02-23T01:58:29.880Z,49.6
2018-02-23T01:59:10.292Z,49.6
2018-02-23T01:59:50.687Z,49.86
2018-02-23T02:00:31.084Z,49.79
2018-02-23T02:01:11.457Z,49.98
2018-02-23T02:01:51.864Z,50.55
2018-02-23T02:02:32.272Z,50.55
2018-02-23T02:03:12.651Z,49.51
2018-02-23T02:03:53.093Z,49.13
2018-02-23T02:04:33.482Z,48.75
2018-02-23T02:05:13.888Z,48.65
2018-02-23T02:05:54.341Z,48.75
2018-02-23T02:06:34.698Z,49.41
2018-02-23T02:07:15.068Z,49.69
2018-02-23T02:07:55.453Z,49.03
2018-02-23T02:08:35.876Z,48.75
2018-02-23T02:09:16.207Z,48.46
2018-02-23T02:09:56.640Z,48.27
2018-02-23T02:10:37.061Z,48.36
2018-02-23T02:11:17.414Z,48.15
2018-02-23T02:11:57.846Z,48.44
2018-02-23T02:12:38.233Z,48.44
2018-02-23T02:13:18.703Z,48.91
2018-02-23T02:13:59.086Z,49.86
2018-02-23T02:14:39.442Z,49.38
2018-02-23T02:15:19.846Z,50.15
2018-02-23T02:16:00.262Z,50.24
2018-02-23T02:16:40.651Z,49.76
2018-02-23T02:17:21.061Z,49.29
2018-02-23T02:18:01.476Z,49.29
2018-02-23T02:26:58.068Z,50.34
2018-02-23T02:34:19.862Z,49.95
2018-02-23T02:35:07.416Z,50.05
2018-02-23T02:35:59.343Z,50.24
2018-02-23T02:42:24.873Z,49.76
2018-02-23T02:44:06.035Z,49.67
2018-02-23T02:44:56.354Z,50.24
2018-02-23T02:51:23.620Z,50.15
2018-02-23T02:52:12.678Z,50.62
2018-02-23T02:54:16.036Z,50.71
2018-02-23T02:59:53.801Z,51.37
2018-02-23T03:00:44.853Z,51.37
2018-02-23T03:12:39.718Z,52.33
2018-02-23T03:15:07.219Z,52.89
2018-02-23T03:15:55.119Z,53.08
2018-02-23T03:16:45.698Z,52.89
2018-02-23T03:17:24.956Z,52.51
2018-02-23T03:18:05.340Z,52.98
2018-02-23T03:18:45.754Z,52.42
2018-02-23T03:19:26.161Z,52.7
2018-02-23T03:20:06.552Z,52.8
2018-02-23T03:20:46.950Z,52.89
2018-02-23T03:21:27.338Z,52.89
2018-02-23T03:22:07.810Z,52.98
2018-02-23T03:22:48.149Z,52.8
2018-02-23T03:23:28.574Z,52.98
2018-02-23T03:24:08.952Z,52.98
2018-02-23T03:24:49.369Z,53.18
2018-02-23T03:25:29.766Z,52.89
2018-02-23T03:26:10.227Z,52.8
2018-02-23T03:26:50.642Z,52.89
2018-02-23T03:27:30.992Z,53.18
2018-02-23T03:28:11.375Z,52.89
2018-02-23T03:28:51.766Z,53.46
2018-02-23T03:29:32.150Z,53.27
2018-02-23T03:30:12.558Z,53.75
2018-02-23T03:30:53.020Z,53.46
2018-02-23T03:31:33.376Z,52.89
2018-02-23T03:32:13.749Z,53.37
2018-02-23T03:32:54.176Z,53.56
2018-02-23T03:33:34.535Z,54.03
2018-02-23T03:34:14.928Z,53.46
2018-02-23T03:34:55.300Z,53.75
2018-02-23T03:35:35.689Z,53.18
2018-02-23T03:36:16.095Z,53.94
2018-02-23T03:36:56.489Z,53.56
2018-02-23T03:37:36.886Z,53.56
2018-02-23T03:38:17.273Z,53.46
2018-02-23T03:38:57.705Z,53.27
2018-02-23T03:39:38.074Z,53.84
2018-02-23T03:40:18.530Z,53.94
2018-02-23T03:40:58.900Z,53.94
2018-02-23T03:41:39.312Z,54.13
2018-02-23T03:42:19.712Z,53.94
2018-02-23T03:43:00.100Z,54.03
2018-02-23T03:43:40.551Z,54.22
2018-02-23T03:46:00.745Z,54.13
2018-02-23T03:46:49.194Z,54.13
2018-02-23T03:51:29.369Z,54.13
2018-02-23T03:52:08.056Z,54.13
2018-02-23T03:52:48.461Z,54.22
2018-02-23T03:53:28.830Z,54.32
2018-02-23T03:54:09.206Z,54.03
2018-02-23T03:54:49.629Z,54.03
2018-02-23T03:55:29.999Z,54.41
2018-02-23T03:56:10.407Z,54.13
2018-02-23T03:56:50.844Z,54.41
2018-02-23T03:57:31.181Z,54.69
2018-02-23T03:58:11.606Z,54.32
2018-02-23T03:58:51.962Z,54.22
2018-02-23T03:59:32.400Z,54.03
2018-02-23T04:00:12.772Z,54.32
2018-02-23T04:03:44.395Z,54.13
2018-02-23T04:04:37.527Z,54.03
2018-02-23T04:45:10.333Z,58.55
2018-02-23T04:45:58.875Z,58.62
2018-02-23T04:46:46.622Z,59.66
2018-02-23T04:47:35.540Z,60.06
2018-02-23T04:48:23.708Z,60.22
2018-02-23T04:49:12.750Z,60.06
2018-02-23T04:50:01.110Z,60.03
2018-02-23T04:50:49.819Z,59.59
2018-02-23T04:51:39.140Z,60.06
2018-02-23T04:52:26.861Z,59.69
2018-02-23T04:53:15.720Z,59.97
2018-02-23T04:54:04.428Z,59.41
2018-02-23T04:54:52.918Z,58.84
2018-02-23T04:55:42.021Z,59.03
2018-02-23T04:56:30.303Z,59.78
2018-02-23T04:57:18.600Z,59.59
2018-02-23T04:58:08.278Z,59.03
2018-02-23T04:58:56.552Z,59.03
2018-02-23T04:59:45.543Z,58.65
2018-02-23T05:00:34.126Z,58.84
2018-02-23T05:01:23.007Z,58.74
2018-02-23T05:02:11.584Z,58.74
2018-02-23T05:03:00.419Z,58.29
2018-02-23T05:04:39.344Z,57.89
2018-02-23T05:07:23.487Z,57.32
2018-02-23T05:08:13.085Z,57.04
2018-02-23T05:09:05.626Z,57.89
2018-02-23T05:10:56.453Z,57.79
2018-02-23T05:13:15.393Z,58.07
2018-02-23T05:14:56.823Z,57.51
2018-02-23T05:15:46.787Z,57.13
2018-02-23T05:16:37.098Z,57.7
2018-02-23T05:17:23.618Z,57.98
2018-02-23T05:18:14.641Z,57.79
2018-02-23T05:20:11.284Z,57.32
2018-02-23T05:20:54.488Z,57.32
2018-02-23T05:21:34.550Z,57.79
2018-02-23T05:22:15.091Z,57.51
2018-02-23T05:22:55.713Z,57.98
2018-02-23T05:23:37.058Z,57.6
2018-02-23T05:24:17.817Z,58.07
2018-02-23T05:24:58.537Z,58.2
2018-02-23T05:25:39.257Z,57.98
2018-02-23T05:26:20.168Z,58.11
2018-02-23T05:27:00.530Z,57.79
2018-02-23T05:27:40.823Z,57.89
2018-02-23T05:28:21.279Z,57.98
2018-02-23T05:29:01.677Z,57.79
2018-02-23T05:29:42.481Z,57.6
2018-02-23T05:30:22.922Z,58.07
2018-02-23T05:31:04.355Z,57.89
2018-02-23T05:31:44.959Z,58.07
2018-02-23T05:32:25.859Z,58.84
2018-02-23T05:33:07.057Z,58.65
2018-02-23T05:33:48.165Z,58.55
2018-02-23T05:34:29.428Z,58.36
2018-02-23T05:35:10.331Z,58.17
2018-02-23T05:35:50.968Z,57.89
2018-02-23T05:36:31.998Z,58.55
2018-02-23T05:37:12.849Z,58.36
2018-02-23T05:37:53.687Z,58.07
2018-02-23T05:38:34.540Z,57.98
2018-02-23T05:39:15.472Z,58.36
2018-02-23T05:39:55.928Z,58.65
2018-02-23T05:40:36.768Z,58.84
2018-02-23T05:41:17.467Z,58.65
2018-02-23T05:41:57.973Z,58.84
2018-02-23T05:42:38.595Z,58.84
2018-02-23T05:43:19.116Z,58.93
2018-02-23T05:43:59.605Z,58.74
2018-02-23T05:44:40.341Z,58.93
2018-02-23T05:45:21.057Z,59.03
2018-02-23T05:46:01.593Z,59.03
2018-02-23T05:46:43.508Z,58.36
2018-02-23T05:47:23.004Z,58.07
2018-02-23T05:48:03.705Z,58.58
2018-02-23T05:48:43.903Z,57.82
2018-02-23T05:49:24.916Z,58.01
2018-02-23T05:50:06.220Z,58.07
2018-02-23T05:50:46.581Z,57.73
2018-02-23T05:51:27.287Z,57.73
2018-02-23T05:52:10.121Z,57.16
2018-02-23T05:52:49.960Z,57.44
2018-02-23T05:53:31.384Z,57.16
2018-02-23T05:54:12.307Z,57.35
2018-02-23T05:54:52.900Z,56.97
2018-02-23T05:55:33.789Z,57.16
2018-02-23T05:56:15.832Z,56.87
2018-02-23T05:56:56.551Z,57.06
2018-02-23T05:57:37.353Z,56.97
2018-02-23T05:58:18.185Z,56.21
2018-02-23T05:58:58.987Z,56.59
2018-02-23T05:59:40.523Z,56.97
2018-02-23T06:00:20.821Z,56.68
2018-02-23T06:01:01.499Z,56.97
2018-02-23T06:01:43.870Z,56.87
2018-02-23T06:02:25.052Z,56.78
2018-02-23T06:03:05.247Z,56.3
2018-02-23T06:03:46.871Z,56.49
2018-02-23T06:04:27.758Z,56.68
2018-02-23T06:05:08.388Z,56.68
2018-02-23T06:05:49.078Z,57.06
2018-02-23T06:06:29.603Z,56.21
2018-02-23T06:07:11.902Z,56.78
2018-02-23T06:07:53.269Z,56.3
2018-02-23T06:08:33.846Z,57.44
2018-02-23T06:09:15.552Z,57.92
2018-02-23T06:09:56.656Z,58.11
2018-02-23T06:10:37.602Z,58.01
2018-02-23T06:11:18.207Z,58.29
2018-02-23T06:11:59.225Z,58.58
2018-02-23T06:12:40.149Z,58.29
2018-02-23T06:13:22.500Z,59.25
2018-02-23T06:14:03.091Z,59.15
2018-02-23T06:14:43.879Z,58.96
2018-02-23T06:15:25.073Z,60.28
2018-02-23T06:16:06.870Z,60.95
2018-02-23T06:16:47.837Z,60.76
2018-02-23T06:17:28.912Z,60.1
2018-02-23T06:18:10.681Z,59.91
2018-02-23T06:18:52.183Z,59.91
2018-02-23T06:19:35.365Z,60.38
2018-02-23T06:20:17.790Z,60.86
2018-02-23T06:20:58.759Z,60.19
2018-02-23T06:21:38.878Z,60.86
2018-02-23T06:22:22.231Z,61.99
2018-02-23T06:23:02.179Z,62.37
2018-02-23T06:23:43.703Z,61.33
2018-02-23T06:24:24.998Z,61.05
2018-02-23T06:25:07.741Z,61.8
2018-02-23T06:25:48.391Z,62.08
2018-02-23T06:26:29.989Z,63.23
2018-02-23T06:27:13.290Z,62.56
2018-02-23T06:27:54.706Z,60.38
2018-02-23T06:28:36.529Z,59.53
2018-02-23T06:29:18.113Z,58.77
2018-02-23T06:29:59.363Z,58.2
2018-02-23T06:30:40.437Z,57.35
2018-02-23T06:31:21.211Z,57.35
2018-02-23T06:32:03.559Z,57.16
2018-02-23T06:32:45.286Z,56.59
2018-02-23T06:39:35.429Z,55.83
2018-02-23T06:41:31.588Z,54.88
2018-02-23T06:50:05.302Z,52.54
2018-02-23T07:07:24.266Z,49.08
2018-02-23T07:11:06.473Z,46.73
2018-02-23T08:01:40.254Z,38.29
2018-02-23T08:02:39.010Z,36.4
2018-02-23T08:03:27.361Z,37.99
2018-02-23T08:04:08.081Z,39.61
2018-02-23T08:04:52.307Z,40.75
2018-02-23T08:05:35.516Z,39.21
2018-02-23T08:06:18.197Z,40.44
2018-02-23T08:06:59.391Z,41.11
2018-02-23T08:07:40.275Z,40.16
2018-02-23T08:08:21.716Z,40.25
2018-02-23T08:09:03.912Z,40.65
2018-02-23T08:09:45.059Z,39.98
2018-02-23T08:10:24.691Z,39.51
2018-02-23T08:11:06.180Z,39.42
2018-02-23T08:11:47.423Z,38.77
2018-02-23T08:12:27.606Z,38.39
2018-02-23T08:13:09.347Z,37.63
2018-02-23T08:13:50.037Z,36.68
2018-02-23T08:14:31.519Z,36.96
2018-02-23T08:15:12.233Z,37.25
2018-02-23T08:15:53.719Z,36.77
2018-02-23T08:16:34.928Z,36.58
2018-02-23T08:17:15.788Z,35.54
2018-02-23T08:17:55.986Z,35.54
2018-02-23T08:18:37.711Z,36.11
2018-02-23T08:19:17.541Z,34.95
2018-02-23T08:19:59.255Z,36.3
2018-02-23T08:20:40.559Z,36.85
2018-02-23T08:21:21.238Z,37.25
2018-02-23T08:24:52.484Z,35.27
2018-02-23T08:27:27.276Z,34.63
2018-02-23T08:28:19.589Z,33.77
2018-02-23T08:29:00.884Z,33.48
2018-02-23T08:29:41.494Z,32.55
2018-02-23T08:30:22.970Z,32.15
2018-02-23T08:31:03.032Z,32.82
2018-02-23T08:31:44.703Z,32.91
2018-02-23T08:32:25.712Z,33.47
2018-02-23T08:33:06.713Z,33.67
2018-02-23T08:33:47.703Z,33.86
2018-02-23T08:34:28.785Z,32.91
2018-02-23T08:35:10.061Z,33.58
2018-02-23T08:35:49.864Z,33.86
2018-02-23T08:36:32.239Z,33.29
2018-02-23T08:37:13.467Z,33.77
2018-02-23T08:37:55.627Z,34.15
2018-02-23T08:38:35.313Z,34.34
2018-02-23T08:39:16.335Z,33.58
2018-02-23T08:39:57.685Z,32.72
2018-02-23T08:40:38.031Z,31.58
2018-02-23T08:41:19.742Z,33.58
2018-02-23T08:42:01.645Z,31.96
2018-02-23T08:42:42.048Z,32.32
2018-02-23T08:43:22.805Z,32.04
2018-02-23T08:44:04.777Z,32.14
2018-02-23T08:45:26.707Z,34.59
2018-02-23T08:46:07.510Z,34.99
2018-02-23T08:46:50.358Z,33.75
2018-02-23T08:47:31.983Z,33.47
2018-02-23T08:48:13.842Z,34.05
2018-02-23T08:48:54.416Z,34.05
2018-02-23T08:49:34.249Z,33.5
2018-02-23T08:52:51.434Z,30.55
2018-02-23T08:53:33.645Z,31.02
2018-02-23T08:54:14.456Z,30.25
2018-02-23T08:54:55.176Z,30.54
2018-02-23T08:55:36.936Z,30.33
2018-02-23T08:56:17.546Z,30.88
2018-02-23T08:56:59.651Z,33.07
2018-02-23T08:57:39.437Z,34.7
2018-02-23T08:58:21.320Z,33.65
2018-02-23T08:59:02.150Z,33.18
2018-02-23T08:59:42.324Z,33.28
2018-02-23T09:00:23.730Z,32.42
2018-02-23T09:01:04.490Z,32.51
2018-02-23T09:01:45.782Z,33.18
2018-02-23T09:02:26.049Z,34.7
2018-02-23T09:03:47.467Z,33.58
2018-02-23T09:04:29.132Z,31.69
2018-02-23T09:05:10.812Z,30.55
2018-02-23T09:05:51.683Z,29.99
2018-02-23T09:06:32.657Z,29.71
2018-02-23T09:07:14.192Z,29.04
2018-02-23T09:07:55.338Z,28.28
2018-02-23T09:08:35.008Z,29.14
2018-02-23T09:09:16.648Z,28.85
2018-02-23T09:09:57.107Z,29.52
2018-02-23T09:10:38.881Z,28.86
2018-02-23T09:11:19.997Z,28.86
2018-02-23T09:12:00.663Z,28.1
2018-02-23T09:12:41.311Z,28.49
2018-02-23T09:13:23.377Z,28.75
2018-02-23T09:14:04.750Z,29.14
2018-02-23T09:14:45.132Z,30.18
2018-02-23T09:15:26.663Z,29.33
2018-02-23T09:16:07.679Z,28.67
2018-02-23T09:16:49.142Z,27.33
2018-02-23T09:17:29.654Z,28.75
2018-02-23T09:18:10.540Z,29.9
2018-02-23T09:18:52.505Z,28.85
2018-02-23T09:19:33.408Z,28.39
2018-02-23T09:20:13.330Z,28.49
2018-02-23T09:20:56.575Z,28.12
2018-02-23T09:21:37.150Z,27.83
2018-02-23T09:22:19.688Z,26.78
2018-02-23T09:23:00.660Z,26.18
2018-02-23T09:23:42.189Z,27.12
2018-02-23T09:24:23.254Z,28.53
2018-02-23T09:25:04.403Z,29.68
2018-02-23T09:25:45.079Z,30.63
2018-02-23T09:26:26.090Z,31.2
2018-02-23T09:30:16.058Z,28.66
2018-02-23T09:30:59.950Z,28.58
2018-02-23T09:31:40.926Z,28.58
2018-02-23T09:32:21.521Z,28.58
2018-02-23T09:33:01.835Z,28.49
2018-02-23T09:33:42.482Z,28.49
2018-02-23T09:34:24.562Z,27.61
2018-02-23T09:35:07.255Z,27.23
2018-02-23T09:35:49.106Z,27.79
2018-02-23T09:36:29.979Z,27.49
2018-02-23T09:37:13.929Z,28.81
2018-02-23T09:37:55.711Z,29.55
2018-02-23T09:38:36.659Z,30.12
2018-02-23T09:39:20.543Z,31.64
2018-02-23T09:40:01.754Z,31.64
2018-02-23T09:40:41.886Z,31.15
2018-02-23T09:41:22.898Z,31.34
2018-02-23T09:42:04.480Z,32.2
2018-02-23T09:42:50.928Z,32.48
2018-02-23T09:43:31.582Z,32.2
2018-02-23T09:44:12.265Z,32.01
2018-02-23T09:44:57.700Z,32.1
2018-02-23T09:45:38.001Z,33.44
2018-02-23T09:46:19.087Z,33.24
2018-02-23T09:46:59.922Z,34.09
2018-02-23T09:47:42.544Z,34.19
2018-02-23T09:48:24.002Z,33.92
2018-02-23T09:49:12.492Z,32.51
2018-02-23T09:50:01.838Z,30.8
2018-02-23T09:54:02.332Z,30.12
2018-02-23T09:58:23.390Z,33.26
2018-02-23T09:59:03.975Z,33.47
2018-02-23T09:59:45.196Z,31.48
2018-02-23T10:00:25.696Z,31.77
2018-02-23T10:01:06.403Z,31.1
2018-02-23T10:01:47.909Z,30.44
2018-02-23T10:02:28.773Z,29.88
2018-02-23T10:03:10.180Z,28.93
2018-02-23T10:03:51.551Z,28.75
2018-02-23T10:04:31.679Z,27.5
2018-02-23T10:05:12.730Z,27.39
2018-02-23T10:05:53.121Z,27.97
2018-02-23T10:06:36.227Z,28.33
2018-02-23T10:07:16.812Z,29
2018-02-23T10:44:54.823Z,29.09
2018-02-23T10:45:35.880Z,29.66
2018-02-23T10:46:17.008Z,28.92
2018-02-23T10:46:58.023Z,28.33
2018-02-23T10:47:40.521Z,28.81
2018-02-23T10:48:22.227Z,29.47
2018-02-23T10:49:04.527Z,29
2018-02-23T10:49:44.525Z,28.33
2018-02-23T10:50:25.515Z,28.53
2018-02-23T10:52:30.311Z,27.57
2018-02-23T10:53:14.558Z,29.38
2018-02-23T10:53:57.044Z,29.38
2018-02-23T10:54:37.353Z,27.86
2018-02-23T10:55:19.348Z,27.56
2018-02-23T10:56:00.888Z,27.73
2018-02-23T10:56:42.349Z,29.33
2018-02-23T10:57:24.333Z,30.09
2018-02-23T10:58:06.143Z,31.61
2018-02-23T10:58:46.856Z,31.82
2018-02-23T10:59:27.446Z,30.98
2018-02-23T11:00:08.570Z,30.58
2018-02-23T11:00:49.844Z,30.3
2018-02-23T11:01:31.387Z,30.77
2018-02-23T11:02:11.647Z,30.96
2018-02-23T11:02:54.569Z,30.6
2018-02-23T11:03:34.883Z,30.96
2018-02-23T11:04:22.856Z,30.4
2018-02-23T11:05:04.214Z,29.92
2018-02-23T11:05:45.317Z,30.3
2018-02-23T11:06:26.997Z,30.77
2018-02-23T11:07:08.212Z,31.17
2018-02-23T11:07:53.679Z,31.45
2018-02-23T11:08:39.016Z,31.09
2018-02-23T11:09:34.704Z,29.39
2018-02-23T11:10:16.261Z,28.36
2018-02-23T11:10:57.451Z,28.55
2018-02-23T11:11:38.969Z,27.31
2018-02-23T11:12:19.503Z,26.64
2018-02-23T11:13:01.884Z,26.92
2018-02-23T11:13:42.475Z,25.96
2018-02-23T11:14:23.772Z,27.01
2018-02-23T11:15:04.421Z,26.9
2018-02-23T11:15:45.346Z,27.86
2018-02-23T11:16:28.835Z,28.52
2018-02-23T11:17:10.351Z,28.42
2018-02-23T11:17:51.965Z,28.52
2018-02-23T11:18:48.004Z,27.76
2018-02-23T11:19:30.889Z,27.27
2018-02-23T11:20:13.883Z,27.84
2018-02-23T11:20:57.133Z,28.41
2018-02-23T11:21:38.100Z,27.94
2018-02-23T11:22:20.174Z,29.08
2018-02-23T11:23:01.522Z,29.36
2018-02-23T11:23:40.630Z,29.46
2018-02-23T11:24:21.215Z,29.08
2018-02-23T11:25:02.120Z,28.89
2018-02-23T11:25:44.340Z,28.6
2018-02-23T11:26:24.806Z,28.79
2018-02-23T11:27:05.229Z,27.55
2018-02-23T11:27:46.230Z,28.49
2018-02-23T11:28:26.691Z,29.25
2018-02-23T11:29:08.101Z,29.64
2018-02-23T11:29:48.419Z,28.51
2018-02-23T11:32:12.426Z,27.75
2018-02-23T11:33:01.109Z,28.41
2018-02-23T11:33:41.507Z,28.7
2018-02-23T11:34:21.833Z,28.31
2018-02-23T11:35:02.215Z,28.22
2018-02-23T11:35:42.639Z,28.03
2018-02-23T11:36:23.020Z,27.94
2018-02-23T11:37:03.469Z,27.64
2018-02-23T11:37:44.169Z,28.4
2018-02-23T11:38:24.541Z,28.11
2018-02-23T11:39:05.290Z,29.73
2018-02-23T11:39:45.797Z,29.25
2018-02-23T11:40:26.173Z,28.97
2018-02-23T11:41:06.715Z,28.68
2018-02-23T11:41:47.129Z,28.3
2018-02-23T11:42:27.838Z,29.25
2018-02-23T11:43:08.244Z,30.03
2018-02-23T11:43:51.096Z,28.79
2018-02-23T11:44:31.345Z,27.65
2018-02-23T11:45:11.786Z,27.45
2018-02-23T11:45:52.229Z,28.49
2018-02-23T11:46:32.556Z,30.2
2018-02-23T11:47:12.952Z,30.31
2018-02-23T11:47:53.384Z,30.12
2018-02-23T11:48:33.807Z,29.95
2018-02-23T11:49:14.120Z,29.01
2018-02-23T11:49:54.598Z,27.98
2018-02-23T11:50:34.911Z,27.12
2018-02-23T11:51:15.314Z,26.66
2018-02-23T11:51:55.917Z,25.82
2018-02-23T11:52:36.649Z,25.24
2018-02-23T11:53:17.042Z,24.59
2018-02-23T11:53:57.403Z,24.22
2018-02-23T11:54:37.798Z,23.55
2018-02-23T11:55:18.203Z,23.27
2018-02-23T11:55:58.706Z,22.6
2018-02-23T11:56:38.974Z,22.69
2018-02-23T11:57:19.752Z,22.89
2018-02-23T11:58:01.014Z,22.89
2018-02-23T11:58:41.442Z,22.23
2018-02-23T11:59:21.788Z,21.86
2018-02-23T12:00:02.543Z,22.53
2018-02-23T12:00:42.706Z,21.57
2018-02-23T12:01:23.072Z,21.28
2018-02-23T12:02:03.456Z,21.01
2018-02-23T12:02:43.859Z,20.63
2018-02-23T12:03:25.090Z,20.72
2018-02-23T12:04:05.518Z,20.53
2018-02-23T12:04:45.946Z,20.62
2018-02-23T12:05:26.335Z,21.28
2018-02-23T12:06:06.741Z,21.37
2018-02-23T12:06:47.140Z,20.99
2018-02-23T12:07:27.627Z,22.23
2018-02-23T12:08:08.040Z,22.89
2018-02-23T12:08:48.385Z,22.61
2018-02-23T12:09:28.844Z,22.8
2018-02-23T12:10:09.238Z,23.09
2018-02-23T12:10:49.702Z,21.56
2018-02-23T12:11:30.040Z,21.26
2018-02-23T12:12:10.391Z,22.6
2018-02-23T12:12:50.829Z,22.89
2018-02-23T12:13:31.191Z,22.79
2018-02-23T12:14:11.570Z,22.61
2018-02-23T12:14:52.010Z,22.52
2018-02-23T12:15:32.449Z,22.13
2018-02-23T12:16:12.827Z,22.23
2018-02-23T12:16:53.383Z,21.75
2018-02-23T12:17:34.144Z,21.75
2018-02-23T12:18:14.222Z,21.77
2018-02-23T12:18:54.679Z,21.84
2018-02-23T12:19:35.154Z,21.75
2018-02-23T12:20:15.545Z,22.42
2018-02-23T12:20:55.981Z,21.75
2018-02-23T12:21:36.409Z,21.84
2018-02-23T12:22:16.705Z,21.48
2018-02-23T12:22:57.090Z,21.28
2018-02-23T12:23:37.497Z,21.95
2018-02-23T12:24:17.899Z,21.56
2018-02-23T12:24:58.319Z,21.75
2018-02-23T12:25:38.723Z,21.74
2018-02-23T12:26:19.613Z,21.84
2018-02-23T12:27:00.218Z,22.13
2018-02-23T12:27:40.619Z,21.74
2018-02-23T12:28:21.090Z,21.84
2018-02-23T12:29:01.507Z,21.75
2018-02-23T12:29:41.917Z,21.75
2018-02-23T12:30:22.373Z,21.37
2018-02-23T12:31:02.823Z,21.77
2018-02-23T12:31:43.252Z,21.57
2018-02-23T12:32:23.724Z,20.89
2018-02-23T12:33:04.078Z,21.45
2018-02-23T12:33:44.458Z,21.84
2018-02-23T12:34:24.905Z,22.13
2018-02-23T12:35:05.323Z,23.08
2018-02-23T12:35:45.819Z,23.27
2018-02-23T12:36:26.263Z,22.79
2018-02-23T12:37:06.652Z,20.97
2018-02-23T12:37:48.882Z,20.66
2018-02-23T12:38:31.679Z,22.94
2018-02-23T12:39:12.681Z,24.27
2018-02-23T12:39:53.094Z,24.55
2018-02-23T12:40:33.400Z,26.46
2018-02-23T12:41:13.889Z,25.99
2018-02-23T12:41:54.225Z,25.34
2018-02-23T12:42:34.836Z,24.49
2018-02-23T12:43:15.699Z,23.83
2018-02-23T12:43:57.399Z,23.74
2018-02-23T12:44:37.940Z,22.79
2018-02-23T12:45:18.261Z,22.69
2018-02-23T12:45:58.865Z,22.41
2018-02-23T12:46:39.165Z,22.5
2018-02-23T12:47:19.577Z,22.6
2018-02-23T12:48:00.088Z,22.61
2018-02-23T12:48:40.392Z,21.64
2018-02-23T12:49:20.822Z,21.84
2018-02-23T12:50:01.275Z,22.5
2018-02-23T12:50:42.533Z,23.27
2018-02-23T12:51:22.960Z,22.49
2018-02-23T12:52:03.425Z,21.44
2018-02-23T12:52:43.808Z,21.71
2018-02-23T12:53:24.279Z,22.65
2018-02-23T12:54:04.624Z,23.97
2018-02-23T12:54:45.061Z,25.96
2018-02-23T12:55:25.493Z,27.6
2018-02-23T12:56:05.915Z,27.69
2018-02-23T12:56:47.079Z,27.23
2018-02-23T12:57:27.423Z,25.52
2018-02-23T12:58:07.807Z,23.8
2018-02-23T12:58:48.178Z,23.23
2018-02-23T12:59:28.643Z,23.32
2018-02-23T13:00:09.009Z,24.55
2018-02-23T13:00:49.417Z,25.98
2018-02-23T13:01:29.829Z,26.76
2018-02-23T13:02:10.183Z,26.37
2018-02-23T13:02:50.768Z,26.1
2018-02-23T13:03:31.017Z,24.39
2018-02-23T13:04:11.477Z,24.68
2018-02-23T13:04:51.931Z,23.83
2018-02-23T13:05:32.244Z,22.79
2018-02-23T13:06:12.696Z,23.65
2018-02-23T13:06:53.170Z,22.98
2018-02-23T13:07:33.659Z,22.31
2018-02-23T13:08:14.104Z,22.6
2018-02-23T13:08:54.510Z,23.27
2018-02-23T13:09:34.960Z,22.98
2018-02-23T13:10:15.347Z,23.46
2018-02-23T13:10:55.771Z,22.99
2018-02-23T13:11:36.269Z,22.33
2018-02-23T13:12:16.607Z,20.97
2018-02-23T13:12:56.986Z,21.81
2018-02-23T13:13:37.506Z,23.15
2018-02-23T13:14:17.832Z,23.63
2018-02-23T13:14:58.272Z,23.52
2018-02-23T13:15:38.654Z,24.28
2018-02-23T13:16:19.175Z,25.42
2018-02-23T13:16:59.583Z,26.01
2018-02-23T13:17:39.998Z,25.72
2018-02-23T13:18:20.359Z,25.53
2018-02-23T13:19:00.808Z,24.49
2018-02-23T13:19:41.186Z,25.16
2018-02-23T13:20:21.571Z,25.18
2018-02-23T13:21:01.932Z,24.41
2018-02-23T13:21:42.319Z,23.65
2018-02-23T13:22:22.785Z,23.28
2018-02-23T13:23:03.187Z,22.98
2018-02-23T13:23:43.646Z,22.89
2018-02-23T13:24:24.402Z,22.98
2018-02-23T13:25:04.916Z,22.79
2018-02-23T13:25:45.294Z,23.08
2018-02-23T13:26:25.684Z,22.79
2018-02-23T13:27:06.127Z,22.61
2018-02-23T13:27:46.543Z,21.93
2018-02-23T13:28:26.854Z,21.84
2018-02-23T13:29:07.262Z,22.79
2018-02-23T13:29:47.643Z,22.89
2018-02-23T13:30:28.038Z,22.99
2018-02-23T13:31:08.506Z,22.81
2018-02-23T13:31:48.899Z,23
2018-02-23T13:32:29.344Z,21.77
2018-02-23T13:33:09.680Z,22.63
2018-02-23T13:33:50.052Z,22.16
2018-02-23T13:34:30.477Z,21.58
2018-02-23T13:35:10.830Z,20.92
2018-02-23T13:35:51.318Z,20.52
2018-02-23T13:36:31.841Z,20.51
2018-02-23T13:37:12.222Z,21.28
2018-02-23T13:37:52.607Z,21.66
2018-02-23T13:38:33.015Z,21.66
2018-02-23T13:39:13.504Z,21.75
2018-02-23T13:39:53.895Z,21.66
2018-02-23T13:40:34.267Z,22.52
2018-02-23T13:41:14.710Z,22.71
2018-02-23T13:41:55.136Z,22.33
2018-02-23T13:42:35.565Z,22.33
2018-02-23T13:43:15.894Z,22.13
2018-02-23T13:43:56.914Z,22.13
2018-02-23T13:44:37.412Z,21.75
2018-02-23T13:45:17.953Z,21.48
2018-02-23T13:45:58.239Z,21.19
2018-02-23T13:46:38.651Z,21.38
2018-02-23T13:47:19.109Z,20.62
2018-02-23T13:47:59.538Z,21
2018-02-23T13:48:40.113Z,20.62
2018-02-23T13:49:20.593Z,20.72
2018-02-23T13:50:00.989Z,21.57
2018-02-23T13:50:41.287Z,21.58
2018-02-23T13:51:21.863Z,21.48
2018-02-23T13:52:02.192Z,20.62
2018-02-23T13:52:42.603Z,19.46
2018-02-23T13:53:23.053Z,18.7
2018-02-23T13:54:03.342Z,18.69
2018-02-23T13:54:43.773Z,19.35